Terminal Aerodrome Forecast
Issued by NWS

Home | Current Version | Previous Version | Graphics & Text | Print | Product List | Glossary On
Versions: 1 2 3 4 5 6 7 8 9 10 11 12 13 14 15 16
000
FTUS43 KMPX 211748
TAFRNH
TAF
KRNH 211748Z 2118/2218 14009KT P6SM SCT025 OVC050
     FM212100 12005KT P6SM VCSH OVC030
     FM220300 10002KT 6SM BR OVC010
     FM220600 00000KT 4SM BR OVC007
     FM220900 00000KT 3/4SM BR OVC007
     FM221400 00000KT 4SM BR OVC007
     FM221700 18003KT P6SM OVC015=

USA.gov is the U.S. government's official web portal to all federal, state and local government web resources and services.